sensor_id;sensor_type;location;lat;lon;timestamp;temperature;humidity
30983;DHT22;17660;52.578;13.288;2023-02-28T00:01:07;2.50;97.90
30983;DHT22;17660;52.578;13.288;2023-02-28T00:03:34;2.50;98.10
30983;DHT22;17660;52.578;13.288;2023-02-28T00:06:05;2.50;98.00
30983;DHT22;17660;52.578;13.288;2023-02-28T00:08:32;2.50;98.10
30983;DHT22;17660;52.578;13.288;2023-02-28T00:11:04;2.60;98.30
30983;DHT22;17660;52.578;13.288;2023-02-28T00:13:31;2.50;98.30
30983;DHT22;17660;52.578;13.288;2023-02-28T00:16:19;2.50;98.30
30983;DHT22;17660;52.578;13.288;2023-02-28T00:18:47;2.40;98.40
30983;DHT22;17660;52.578;13.288;2023-02-28T00:21:15;2.30;98.60
30983;DHT22;17660;52.578;13.288;2023-02-28T00:23:42;2.30;98.60
30983;DHT22;17660;52.578;13.288;2023-02-28T00:26:08;2.30;98.80
30983;DHT22;17660;52.578;13.288;2023-02-28T00:28:35;2.30;98.90
30983;DHT22;17660;52.578;13.288;2023-02-28T00:31:02;2.20;99.00
30983;DHT22;17660;52.578;13.288;2023-02-28T00:33:29;2.30;99.10
30983;DHT22;17660;52.578;13.288;2023-02-28T00:36:08;2.30;99.10
30983;DHT22;17660;52.578;13.288;2023-02-28T00:38:35;2.20;99.00
30983;DHT22;17660;52.578;13.288;2023-02-28T00:41:02;2.20;99.00
30983;DHT22;17660;52.578;13.288;2023-02-28T00:43:37;2.20;99.10
30983;DHT22;17660;52.578;13.288;2023-02-28T00:46:05;2.10;99.20
30983;DHT22;17660;52.578;13.288;2023-02-28T00:48:32;2.00;99.40
30983;DHT22;17660;52.578;13.288;2023-02-28T00:50:59;2.10;99.60
30983;DHT22;17660;52.578;13.288;2023-02-28T00:53:26;2.10;99.70
30983;DHT22;17660;52.578;13.288;2023-02-28T00:55:53;2.10;99.80
30983;DHT22;17660;52.578;13.288;2023-02-28T00:58:20;2.10;99.90
30983;DHT22;17660;52.578;13.288;2023-02-28T01:00:47;2.00;99.90
30983;DHT22;17660;52.578;13.288;2023-02-28T01:03:17;1.90;99.90
30983;DHT22;17660;52.578;13.288;2023-02-28T01:05:44;1.90;99.90
30983;DHT22;17660;52.578;13.288;2023-02-28T01:08:12;1.90;99.90
30983;DHT22;17660;52.578;13.288;2023-02-28T01:10:40;1.90;99.90
30983;DHT22;17660;52.578;13.288;2023-02-28T01:13:07;1.90;99.90
30983;DHT22;17660;52.578;13.288;2023-02-28T01:15:33;1.80;99.90
30983;DHT22;17660;52.578;13.288;2023-02-28T01:18:00;1.80;99.90
30983;DHT22;17660;52.578;13.288;2023-02-28T01:20:27;1.80;99.90
30983;DHT22;17660;52.578;13.288;2023-02-28T01:22:54;1.80;99.90
30983;DHT22;17660;52.578;13.288;2023-02-28T01:25:21;1.80;99.90
30983;DHT22;17660;52.578;13.288;2023-02-28T01:27:47;1.80;99.90
30983;DHT22;17660;52.578;13.288;2023-02-28T01:30:14;1.80;99.90
30983;DHT22;17660;52.578;13.288;2023-02-28T01:32:41;1.70;99.90
30983;DHT22;17660;52.578;13.288;2023-02-28T01:35:08;1.70;99.90
30983;DHT22;17660;52.578;13.288;2023-02-28T01:37:35;1.70;99.90
30983;DHT22;17660;52.578;13.288;2023-02-28T01:40:02;1.70;99.90
30983;DHT22;17660;52.578;13.288;2023-02-28T01:42:28;1.70;99.90
30983;DHT22;17660;52.578;13.288;2023-02-28T01:47:38;1.60;99.90
30983;DHT22;17660;52.578;13.288;2023-02-28T01:50:10;1.60;99.90
30983;DHT22;17660;52.578;13.288;2023-02-28T01:52:39;1.50;99.90
30983;DHT22;17660;52.578;13.288;2023-02-28T01:55:07;1.50;99.90
30983;DHT22;17660;52.578;13.288;2023-02-28T01:57:38;1.40;99.90
30983;DHT22;17660;52.578;13.288;2023-02-28T02:00:18;1.40;99.90
30983;DHT22;17660;52.578;13.288;2023-02-28T02:02:49;1.40;99.90
30983;DHT22;17660;52.578;13.288;2023-02-28T02:05:20;1.50;99.90
30983;DHT22;17660;52.578;13.288;2023-02-28T02:07:51;1.40;99.90
30983;DHT22;17660;52.578;13.288;2023-02-28T02:10:21;1.40;99.90
30983;DHT22;17660;52.578;13.288;2023-02-28T02:26:52;1.40;99.90
30983;DHT22;17660;52.578;13.288;2023-02-28T02:32:34;1.30;99.90
30983;DHT22;17660;52.578;13.288;2023-02-28T02:38:10;1.30;99.90
30983;DHT22;17660;52.578;13.288;2023-02-28T02:41:08;1.30;99.90
30983;DHT22;17660;52.578;13.288;2023-02-28T02:43:40;1.20;99.90
30983;DHT22;17660;52.578;13.288;2023-02-28T02:46:19;1.20;99.90
30983;DHT22;17660;52.578;13.288;2023-02-28T02:48:46;1.10;99.90
30983;DHT22;17660;52.578;13.288;2023-02-28T02:51:16;1.10;99.90
30983;DHT22;17660;52.578;13.288;2023-02-28T02:53:51;1.10;99.90
30983;DHT22;17660;52.578;13.288;2023-02-28T02:56:22;0.90;99.90
30983;DHT22;17660;52.578;13.288;2023-02-28T02:58:51;0.90;99.90
30983;DHT22;17660;52.578;13.288;2023-02-28T03:01:23;0.90;99.90
30983;DHT22;17660;52.578;13.288;2023-02-28T03:04:03;0.80;99.90
30983;DHT22;17660;52.578;13.288;2023-02-28T03:06:31;0.80;99.90
30983;DHT22;17660;52.578;13.288;2023-02-28T03:08:57;0.70;99.90
30983;DHT22;17660;52.578;13.288;2023-02-28T03:11:26;0.70;99.90
30983;DHT22;17660;52.578;13.288;2023-02-28T03:19:19;0.60;99.90
30983;DHT22;17660;52.578;13.288;2023-02-28T03:33:03;0.50;99.90
30983;DHT22;17660;52.578;13.288;2023-02-28T03:35:30;0.50;99.90
30983;DHT22;17660;52.578;13.288;2023-02-28T03:38:28;0.50;99.90
30983;DHT22;17660;52.578;13.288;2023-02-28T03:41:16;0.50;99.90
30983;DHT22;17660;52.578;13.288;2023-02-28T03:43:53;0.50;99.90
30983;DHT22;17660;52.578;13.288;2023-02-28T03:46:22;0.50;99.90
30983;DHT22;17660;52.578;13.288;2023-02-28T03:51:22;0.40;99.90
30983;DHT22;17660;52.578;13.288;2023-02-28T03:53:59;0.40;99.90
30983;DHT22;17660;52.578;13.288;2023-02-28T03:56:34;0.40;99.90
30983;DHT22;17660;52.578;13.288;2023-02-28T03:59:13;0.40;99.90
30983;DHT22;17660;52.578;13.288;2023-02-28T04:01:44;0.50;99.90
30983;DHT22;17660;52.578;13.288;2023-02-28T04:04:12;0.40;99.90
30983;DHT22;17660;52.578;13.288;2023-02-28T04:06:40;0.40;99.90
30983;DHT22;17660;52.578;13.288;2023-02-28T04:09:10;0.40;99.90
30983;DHT22;17660;52.578;13.288;2023-02-28T04:14:11;0.30;99.90
30983;DHT22;17660;52.578;13.288;2023-02-28T04:16:41;0.30;99.90
30983;DHT22;17660;52.578;13.288;2023-02-28T04:19:10;0.30;99.90
30983;DHT22;17660;52.578;13.288;2023-02-28T04:21:42;0.30;99.90
30983;DHT22;17660;52.578;13.288;2023-02-28T04:24:17;0.20;99.90
30983;DHT22;17660;52.578;13.288;2023-02-28T04:26:47;0.20;99.90
30983;DHT22;17660;52.578;13.288;2023-02-28T04:29:19;0.20;99.90
30983;DHT22;17660;52.578;13.288;2023-02-28T04:31:46;0.20;99.90
30983;DHT22;17660;52.578;13.288;2023-02-28T04:34:13;0.10;99.90
30983;DHT22;17660;52.578;13.288;2023-02-28T04:36:40;0.10;99.90
30983;DHT22;17660;52.578;13.288;2023-02-28T04:39:06;0.10;99.90
30983;DHT22;17660;52.578;13.288;2023-02-28T04:41:33;0.10;99.90
30983;DHT22;17660;52.578;13.288;2023-02-28T04:44:00;0.10;99.90
30983;DHT22;17660;52.578;13.288;2023-02-28T04:46:27;0.10;99.90
30983;DHT22;17660;52.578;13.288;2023-02-28T04:48:54;0.00;99.90
30983;DHT22;17660;52.578;13.288;2023-02-28T04:51:21;0.00;99.90
30983;DHT22;17660;52.578;13.288;2023-02-28T04:53:48;0.00;99.90
30983;DHT22;17660;52.578;13.288;2023-02-28T04:56:17;0.00;99.90
30983;DHT22;17660;52.578;13.288;2023-02-28T04:58:44;0.00;99.90
30983;DHT22;17660;52.578;13.288;2023-02-28T05:01:26;0.00;99.90
30983;DHT22;17660;52.578;13.288;2023-02-28T05:03:56;-0.10;99.90
30983;DHT22;17660;52.578;13.288;2023-02-28T05:06:25;-0.10;99.90
30983;DHT22;17660;52.578;13.288;2023-02-28T05:08:52;-0.10;99.90
30983;DHT22;17660;52.578;13.288;2023-02-28T05:11:22;-0.10;99.90
30983;DHT22;17660;52.578;13.288;2023-02-28T05:13:50;-0.10;99.90
30983;DHT22;17660;52.578;13.288;2023-02-28T05:16:18;-0.20;99.90
30983;DHT22;17660;52.578;13.288;2023-02-28T05:18:45;-0.10;99.90
30983;DHT22;17660;52.578;13.288;2023-02-28T05:21:30;-0.10;99.90
30983;DHT22;17660;52.578;13.288;2023-02-28T05:24:00;-0.20;99.90
30983;DHT22;17660;52.578;13.288;2023-02-28T05:26:28;-0.20;99.90
30983;DHT22;17660;52.578;13.288;2023-02-28T05:28:55;-0.20;99.90
30983;DHT22;17660;52.578;13.288;2023-02-28T05:31:22;-0.20;99.90
30983;DHT22;17660;52.578;13.288;2023-02-28T05:33:49;-0.30;99.90
30983;DHT22;17660;52.578;13.288;2023-02-28T05:36:16;-0.30;99.90
30983;DHT22;17660;52.578;13.288;2023-02-28T05:38:46;-0.30;99.90
30983;DHT22;17660;52.578;13.288;2023-02-28T05:41:14;-0.40;99.90
30983;DHT22;17660;52.578;13.288;2023-02-28T05:43:41;-0.30;99.90
30983;DHT22;17660;52.578;13.288;2023-02-28T05:46:10;-0.30;99.90
30983;DHT22;17660;52.578;13.288;2023-02-28T05:48:38;-0.40;99.90
30983;DHT22;17660;52.578;13.288;2023-02-28T05:51:06;-0.40;99.90
30983;DHT22;17660;52.578;13.288;2023-02-28T05:53:34;-0.40;99.90
30983;DHT22;17660;52.578;13.288;2023-02-28T05:56:01;-0.40;99.90
30983;DHT22;17660;52.578;13.288;2023-02-28T05:58:28;-0.40;99.90
30983;DHT22;17660;52.578;13.288;2023-02-28T06:01:19;-0.40;99.90
30983;DHT22;17660;52.578;13.288;2023-02-28T06:03:46;-0.50;99.90
30983;DHT22;17660;52.578;13.288;2023-02-28T06:06:13;-0.50;99.90
30983;DHT22;17660;52.578;13.288;2023-02-28T06:08:39;-0.50;99.90
30983;DHT22;17660;52.578;13.288;2023-02-28T06:11:06;-0.50;99.90
30983;DHT22;17660;52.578;13.288;2023-02-28T06:13:34;-0.40;99.90
30983;DHT22;17660;52.578;13.288;2023-02-28T06:16:01;-0.50;99.90
30983;DHT22;17660;52.578;13.288;2023-02-28T06:18:28;-0.50;99.90
30983;DHT22;17660;52.578;13.288;2023-02-28T06:20:55;-0.50;99.90
30983;DHT22;17660;52.578;13.288;2023-02-28T06:23:22;-0.40;99.90
30983;DHT22;17660;52.578;13.288;2023-02-28T06:25:49;-0.40;99.90
30983;DHT22;17660;52.578;13.288;2023-02-28T06:28:16;-0.40;99.90
30983;DHT22;17660;52.578;13.288;2023-02-28T06:30:42;-0.40;99.90
30983;DHT22;17660;52.578;13.288;2023-02-28T06:33:12;-0.40;99.90
30983;DHT22;17660;52.578;13.288;2023-02-28T06:35:38;-0.30;99.90
30983;DHT22;17660;52.578;13.288;2023-02-28T06:38:05;-0.30;99.90
30983;DHT22;17660;52.578;13.288;2023-02-28T06:40:32;-0.30;99.90
30983;DHT22;17660;52.578;13.288;2023-02-28T06:43:02;-0.20;99.90
30983;DHT22;17660;52.578;13.288;2023-02-28T06:45:29;-0.20;99.90
30983;DHT22;17660;52.578;13.288;2023-02-28T06:47:55;-0.20;99.90
30983;DHT22;17660;52.578;13.288;2023-02-28T06:50:22;-0.20;99.90
30983;DHT22;17660;52.578;13.288;2023-02-28T06:52:49;-0.10;99.90
30983;DHT22;17660;52.578;13.288;2023-02-28T06:55:20;-0.10;99.90
30983;DHT22;17660;52.578;13.288;2023-02-28T06:57:47;0.00;99.90
30983;DHT22;17660;52.578;13.288;2023-02-28T07:00:14;0.10;99.90
30983;DHT22;17660;52.578;13.288;2023-02-28T07:02:41;0.20;99.90
30983;DHT22;17660;52.578;13.288;2023-02-28T07:05:08;0.30;99.90
30983;DHT22;17660;52.578;13.288;2023-02-28T07:07:34;0.40;99.90
30983;DHT22;17660;52.578;13.288;2023-02-28T07:10:03;0.60;99.90
30983;DHT22;17660;52.578;13.288;2023-02-28T07:12:30;0.70;99.90
30983;DHT22;17660;52.578;13.288;2023-02-28T07:14:57;0.80;99.90
30983;DHT22;17660;52.578;13.288;2023-02-28T07:17:24;1.00;99.90
30983;DHT22;17660;52.578;13.288;2023-02-28T07:19:50;1.10;99.90
30983;DHT22;17660;52.578;13.288;2023-02-28T07:22:17;1.20;99.90
30983;DHT22;17660;52.578;13.288;2023-02-28T07:24:44;1.30;99.90
30983;DHT22;17660;52.578;13.288;2023-02-28T07:27:11;1.40;99.90
30983;DHT22;17660;52.578;13.288;2023-02-28T07:29:38;1.50;99.90
30983;DHT22;17660;52.578;13.288;2023-02-28T07:32:04;1.60;99.90
30983;DHT22;17660;52.578;13.288;2023-02-28T07:34:31;1.70;99.90
30983;DHT22;17660;52.578;13.288;2023-02-28T07:36:58;1.80;99.90
30983;DHT22;17660;52.578;13.288;2023-02-28T07:39:25;1.80;99.90
30983;DHT22;17660;52.578;13.288;2023-02-28T07:41:52;1.90;99.90
30983;DHT22;17660;52.578;13.288;2023-02-28T07:44:19;1.90;99.90
30983;DHT22;17660;52.578;13.288;2023-02-28T07:46:45;2.00;99.90
30983;DHT22;17660;52.578;13.288;2023-02-28T07:49:12;2.10;99.90
30983;DHT22;17660;52.578;13.288;2023-02-28T07:51:39;2.20;99.90
30983;DHT22;17660;52.578;13.288;2023-02-28T07:54:06;2.30;99.90
30983;DHT22;17660;52.578;13.288;2023-02-28T07:56:33;2.40;99.90
30983;DHT22;17660;52.578;13.288;2023-02-28T07:58:59;2.60;99.90
30983;DHT22;17660;52.578;13.288;2023-02-28T08:01:28;2.70;99.90
30983;DHT22;17660;52.578;13.288;2023-02-28T08:03:56;2.80;99.90
30983;DHT22;17660;52.578;13.288;2023-02-28T08:06:25;2.90;99.90
30983;DHT22;17660;52.578;13.288;2023-02-28T08:08:53;3.00;99.90
30983;DHT22;17660;52.578;13.288;2023-02-28T08:11:19;3.10;99.90
30983;DHT22;17660;52.578;13.288;2023-02-28T08:13:46;3.20;99.90
30983;DHT22;17660;52.578;13.288;2023-02-28T08:16:14;3.30;99.90
30983;DHT22;17660;52.578;13.288;2023-02-28T08:18:44;3.40;99.90
30983;DHT22;17660;52.578;13.288;2023-02-28T08:21:11;3.60;99.80
30983;DHT22;17660;52.578;13.288;2023-02-28T08:23:38;3.70;98.60
30983;DHT22;17660;52.578;13.288;2023-02-28T08:26:05;3.90;97.70
30983;DHT22;17660;52.578;13.288;2023-02-28T08:28:32;4.10;97.10
30983;DHT22;17660;52.578;13.288;2023-02-28T08:31:00;4.30;96.90
30983;DHT22;17660;52.578;13.288;2023-02-28T08:33:28;4.40;95.80
30983;DHT22;17660;52.578;13.288;2023-02-28T08:35:55;4.50;94.40
30983;DHT22;17660;52.578;13.288;2023-02-28T08:38:23;4.70;91.20
30983;DHT22;17660;52.578;13.288;2023-02-28T08:40:53;4.80;91.10
30983;DHT22;17660;52.578;13.288;2023-02-28T08:43:23;5.00;90.50
30983;DHT22;17660;52.578;13.288;2023-02-28T08:45:54;5.00;90.00
30983;DHT22;17660;52.578;13.288;2023-02-28T08:48:24;5.00;90.90
30983;DHT22;17660;52.578;13.288;2023-02-28T08:51:04;5.10;88.20
30983;DHT22;17660;52.578;13.288;2023-02-28T08:53:35;5.20;87.90
30983;DHT22;17660;52.578;13.288;2023-02-28T08:56:04;5.20;88.20
30983;DHT22;17660;52.578;13.288;2023-02-28T08:58:32;5.20;87.30
30983;DHT22;17660;52.578;13.288;2023-02-28T09:00:59;5.40;88.00
30983;DHT22;17660;52.578;13.288;2023-02-28T09:03:26;5.40;86.70
30983;DHT22;17660;52.578;13.288;2023-02-28T09:05:58;5.50;86.60
30983;DHT22;17660;52.578;13.288;2023-02-28T09:08:27;5.40;85.60
30983;DHT22;17660;52.578;13.288;2023-02-28T09:10:55;5.40;85.60
30983;DHT22;17660;52.578;13.288;2023-02-28T09:13:25;5.50;82.20
30983;DHT22;17660;52.578;13.288;2023-02-28T09:15:53;5.60;82.00
30983;DHT22;17660;52.578;13.288;2023-02-28T09:18:19;5.70;81.30
30983;DHT22;17660;52.578;13.288;2023-02-28T09:20:46;5.70;83.00
30983;DHT22;17660;52.578;13.288;2023-02-28T09:23:13;5.80;81.00
30983;DHT22;17660;52.578;13.288;2023-02-28T09:25:47;5.80;80.10
30983;DHT22;17660;52.578;13.288;2023-02-28T09:28:16;5.70;80.60
30983;DHT22;17660;52.578;13.288;2023-02-28T09:30:45;5.80;80.70
30983;DHT22;17660;52.578;13.288;2023-02-28T09:33:13;5.80;80.80
30983;DHT22;17660;52.578;13.288;2023-02-28T09:35:40;5.80;80.50
30983;DHT22;17660;52.578;13.288;2023-02-28T09:38:07;5.80;77.60
30983;DHT22;17660;52.578;13.288;2023-02-28T09:40:47;5.80;77.50
30983;DHT22;17660;52.578;13.288;2023-02-28T09:43:16;5.80;78.20
30983;DHT22;17660;52.578;13.288;2023-02-28T09:45:53;5.80;77.30
30983;DHT22;17660;52.578;13.288;2023-02-28T09:48:29;5.70;77.10
30983;DHT22;17660;52.578;13.288;2023-02-28T09:53:57;5.70;76.90
30983;DHT22;17660;52.578;13.288;2023-02-28T09:56:41;5.70;75.60
30983;DHT22;17660;52.578;13.288;2023-02-28T09:59:15;5.70;77.60
30983;DHT22;17660;52.578;13.288;2023-02-28T10:04:54;5.90;76.70
30983;DHT22;17660;52.578;13.288;2023-02-28T10:10:07;6.10;75.20
30983;DHT22;17660;52.578;13.288;2023-02-28T10:12:44;6.40;75.10
30983;DHT22;17660;52.578;13.288;2023-02-28T10:15:16;6.60;74.60
30983;DHT22;17660;52.578;13.288;2023-02-28T10:17:47;6.90;73.60
30983;DHT22;17660;52.578;13.288;2023-02-28T10:20:34;7.30;74.70
30983;DHT22;17660;52.578;13.288;2023-02-28T10:23:21;7.70;72.60
30983;DHT22;17660;52.578;13.288;2023-02-28T10:25:54;8.40;73.20
30983;DHT22;17660;52.578;13.288;2023-02-28T10:28:21;9.50;69.40
30983;DHT22;17660;52.578;13.288;2023-02-28T10:30:53;10.10;66.30
30983;DHT22;17660;52.578;13.288;2023-02-28T10:33:31;10.80;63.80
30983;DHT22;17660;52.578;13.288;2023-02-28T10:35:58;11.50;61.40
30983;DHT22;17660;52.578;13.288;2023-02-28T10:38:37;12.10;60.60
30983;DHT22;17660;52.578;13.288;2023-02-28T10:43:37;13.40;55.60
30983;DHT22;17660;52.578;13.288;2023-02-28T10:46:13;13.70;55.30
30983;DHT22;17660;52.578;13.288;2023-02-28T10:49:04;14.30;52.10
30983;DHT22;17660;52.578;13.288;2023-02-28T10:51:39;14.90;51.90
30983;DHT22;17660;52.578;13.288;2023-02-28T10:54:16;15.90;49.90
30983;DHT22;17660;52.578;13.288;2023-02-28T10:56:44;16.50;47.90
30983;DHT22;17660;52.578;13.288;2023-02-28T11:01:43;17.20;46.60
30983;DHT22;17660;52.578;13.288;2023-02-28T11:07:18;18.40;45.60
30983;DHT22;17660;52.578;13.288;2023-02-28T11:09:55;18.90;43.50
30983;DHT22;17660;52.578;13.288;2023-02-28T11:12:26;19.20;43.20
30983;DHT22;17660;52.578;13.288;2023-02-28T11:14:59;19.60;43.80
30983;DHT22;17660;52.578;13.288;2023-02-28T11:17:31;20.20;41.90
30983;DHT22;17660;52.578;13.288;2023-02-28T11:20:01;20.50;40.30
30983;DHT22;17660;52.578;13.288;2023-02-28T11:22:32;20.40;40.00
30983;DHT22;17660;52.578;13.288;2023-02-28T11:25:03;20.70;39.30
30983;DHT22;17660;52.578;13.288;2023-02-28T11:30:01;21.00;38.60
30983;DHT22;17660;52.578;13.288;2023-02-28T11:32:29;21.30;39.10
30983;DHT22;17660;52.578;13.288;2023-02-28T11:37:36;21.60;38.00
30983;DHT22;17660;52.578;13.288;2023-02-28T11:40:17;21.80;37.90
30983;DHT22;17660;52.578;13.288;2023-02-28T11:48:22;21.80;38.60
30983;DHT22;17660;52.578;13.288;2023-02-28T11:51:13;22.10;38.10
30983;DHT22;17660;52.578;13.288;2023-02-28T12:07:39;23.40;35.40
30983;DHT22;17660;52.578;13.288;2023-02-28T12:10:29;23.70;34.50
30983;DHT22;17660;52.578;13.288;2023-02-28T12:13:53;23.70;34.70
30983;DHT22;17660;52.578;13.288;2023-02-28T12:18:53;24.00;33.60
30983;DHT22;17660;52.578;13.288;2023-02-28T12:26:54;24.20;34.50
30983;DHT22;17660;52.578;13.288;2023-02-28T12:29:52;23.70;33.60
30983;DHT22;17660;52.578;13.288;2023-02-28T12:32:30;23.90;33.50
30983;DHT22;17660;52.578;13.288;2023-02-28T12:35:23;23.90;33.50
30983;DHT22;17660;52.578;13.288;2023-02-28T12:41:00;23.30;34.40
30983;DHT22;17660;52.578;13.288;2023-02-28T12:43:42;23.50;33.90
30983;DHT22;17660;52.578;13.288;2023-02-28T12:46:14;23.30;34.70
30983;DHT22;17660;52.578;13.288;2023-02-28T12:48:52;22.80;34.90
30983;DHT22;17660;52.578;13.288;2023-02-28T12:51:20;23.20;35.10
30983;DHT22;17660;52.578;13.288;2023-02-28T12:54:09;23.70;34.30
30983;DHT22;17660;52.578;13.288;2023-02-28T13:09:58;24.00;33.60
30983;DHT22;17660;52.578;13.288;2023-02-28T13:12:26;24.00;33.30
30983;DHT22;17660;52.578;13.288;2023-02-28T13:17:53;24.00;33.30
30983;DHT22;17660;52.578;13.288;2023-02-28T13:22:50;23.70;33.10
30983;DHT22;17660;52.578;13.288;2023-02-28T13:27:50;23.60;33.40
30983;DHT22;17660;52.578;13.288;2023-02-28T13:33:32;23.60;33.80
30983;DHT22;17660;52.578;13.288;2023-02-28T13:38:45;23.80;33.70
30983;DHT22;17660;52.578;13.288;2023-02-28T13:44:16;23.60;33.70
30983;DHT22;17660;52.578;13.288;2023-02-28T13:51:53;23.00;34.40
30983;DHT22;17660;52.578;13.288;2023-02-28T14:05:38;18.90;37.70
30983;DHT22;17660;52.578;13.288;2023-02-28T14:08:13;18.30;38.20
30983;DHT22;17660;52.578;13.288;2023-02-28T14:11:01;17.70;39.10
30983;DHT22;17660;52.578;13.288;2023-02-28T14:13:43;17.50;38.60
30983;DHT22;17660;52.578;13.288;2023-02-28T14:16:25;16.90;38.70
30983;DHT22;17660;52.578;13.288;2023-02-28T14:19:00;17.00;39.90
30983;DHT22;17660;52.578;13.288;2023-02-28T14:21:31;17.20;40.00
30983;DHT22;17660;52.578;13.288;2023-02-28T14:24:25;17.40;39.00
30983;DHT22;17660;52.578;13.288;2023-02-28T14:27:29;16.40;40.80
30983;DHT22;17660;52.578;13.288;2023-02-28T14:36:03;16.20;40.10
30983;DHT22;17660;52.578;13.288;2023-02-28T14:38:51;16.40;39.70
30983;DHT22;17660;52.578;13.288;2023-02-28T14:41:35;16.10;40.10
30983;DHT22;17660;52.578;13.288;2023-02-28T14:44:26;16.70;39.50
30983;DHT22;17660;52.578;13.288;2023-02-28T14:46:55;17.20;39.50
30983;DHT22;17660;52.578;13.288;2023-02-28T14:49:31;16.50;43.00
30983;DHT22;17660;52.578;13.288;2023-02-28T14:54:30;16.00;40.50
30983;DHT22;17660;52.578;13.288;2023-02-28T14:56:57;15.60;40.30
30983;DHT22;17660;52.578;13.288;2023-02-28T14:59:29;15.10;40.90
30983;DHT22;17660;52.578;13.288;2023-02-28T15:02:19;14.20;42.30
30983;DHT22;17660;52.578;13.288;2023-02-28T15:05:01;14.20;42.20
30983;DHT22;17660;52.578;13.288;2023-02-28T15:07:29;14.10;43.10
30983;DHT22;17660;52.578;13.288;2023-02-28T15:10:20;14.30;43.90
30983;DHT22;17660;52.578;13.288;2023-02-28T15:13:14;14.40;42.70
30983;DHT22;17660;52.578;13.288;2023-02-28T15:21:26;14.70;42.90
30983;DHT22;17660;52.578;13.288;2023-02-28T15:23:59;14.60;42.40
30983;DHT22;17660;52.578;13.288;2023-02-28T15:26:40;14.60;42.40
30983;DHT22;17660;52.578;13.288;2023-02-28T15:29:19;14.40;41.90
30983;DHT22;17660;52.578;13.288;2023-02-28T15:31:50;14.20;42.20
30983;DHT22;17660;52.578;13.288;2023-02-28T15:34:36;13.90;42.60
30983;DHT22;17660;52.578;13.288;2023-02-28T15:37:39;13.10;44.50
30983;DHT22;17660;52.578;13.288;2023-02-28T15:40:16;12.20;45.20
30983;DHT22;17660;52.578;13.288;2023-02-28T15:45:36;10.70;47.20
30983;DHT22;17660;52.578;13.288;2023-02-28T15:48:23;10.10;47.90
30983;DHT22;17660;52.578;13.288;2023-02-28T15:51:16;9.70;48.90
30983;DHT22;17660;52.578;13.288;2023-02-28T15:53:56;9.40;50.50
30983;DHT22;17660;52.578;13.288;2023-02-28T15:56:26;9.00;50.90
30983;DHT22;17660;52.578;13.288;2023-02-28T15:58:55;8.60;51.20
30983;DHT22;17660;52.578;13.288;2023-02-28T16:01:27;8.40;52.40
30983;DHT22;17660;52.578;13.288;2023-02-28T16:04:19;8.30;52.10
30983;DHT22;17660;52.578;13.288;2023-02-28T16:07:01;8.10;53.20
30983;DHT22;17660;52.578;13.288;2023-02-28T16:09:28;7.90;52.90
30983;DHT22;17660;52.578;13.288;2023-02-28T16:12:02;7.80;52.90
30983;DHT22;17660;52.578;13.288;2023-02-28T16:14:30;7.70;53.70
30983;DHT22;17660;52.578;13.288;2023-02-28T16:17:04;7.60;55.10
30983;DHT22;17660;52.578;13.288;2023-02-28T16:19:31;7.50;54.60
30983;DHT22;17660;52.578;13.288;2023-02-28T16:22:00;7.40;55.20
30983;DHT22;17660;52.578;13.288;2023-02-28T16:24:27;7.20;54.70
30983;DHT22;17660;52.578;13.288;2023-02-28T16:26:55;7.10;55.10
30983;DHT22;17660;52.578;13.288;2023-02-28T16:29:28;7.00;55.60
30983;DHT22;17660;52.578;13.288;2023-02-28T16:31:56;7.10;55.50
30983;DHT22;17660;52.578;13.288;2023-02-28T16:34:23;7.00;55.70
30983;DHT22;17660;52.578;13.288;2023-02-28T16:36:51;6.90;56.40
30983;DHT22;17660;52.578;13.288;2023-02-28T16:39:18;6.80;56.60
30983;DHT22;17660;52.578;13.288;2023-02-28T16:41:48;6.80;56.70
30983;DHT22;17660;52.578;13.288;2023-02-28T16:44:27;6.70;56.80
30983;DHT22;17660;52.578;13.288;2023-02-28T16:46:54;6.70;57.50
30983;DHT22;17660;52.578;13.288;2023-02-28T16:49:21;6.70;57.40
30983;DHT22;17660;52.578;13.288;2023-02-28T16:51:48;6.50;57.90
30983;DHT22;17660;52.578;13.288;2023-02-28T16:54:15;6.50;58.90
30983;DHT22;17660;52.578;13.288;2023-02-28T16:56:44;6.40;58.50
30983;DHT22;17660;52.578;13.288;2023-02-28T16:59:12;6.40;58.80
30983;DHT22;17660;52.578;13.288;2023-02-28T17:01:39;6.30;59.00
30983;DHT22;17660;52.578;13.288;2023-02-28T17:04:06;6.20;59.40
30983;DHT22;17660;52.578;13.288;2023-02-28T17:06:33;6.20;60.00
30983;DHT22;17660;52.578;13.288;2023-02-28T17:08:59;6.10;59.70
30983;DHT22;17660;52.578;13.288;2023-02-28T17:11:26;6.10;60.00
30983;DHT22;17660;52.578;13.288;2023-02-28T17:13:54;6.00;60.00
30983;DHT22;17660;52.578;13.288;2023-02-28T17:16:32;6.00;60.20
30983;DHT22;17660;52.578;13.288;2023-02-28T17:19:04;5.90;60.90
30983;DHT22;17660;52.578;13.288;2023-02-28T17:21:32;5.80;60.70
30983;DHT22;17660;52.578;13.288;2023-02-28T17:23:59;5.80;60.90
30983;DHT22;17660;52.578;13.288;2023-02-28T17:26:26;5.70;61.60
30983;DHT22;17660;52.578;13.288;2023-02-28T17:28:58;5.70;61.20
30983;DHT22;17660;52.578;13.288;2023-02-28T17:31:26;5.60;61.30
30983;DHT22;17660;52.578;13.288;2023-02-28T17:33:53;5.50;62.10
30983;DHT22;17660;52.578;13.288;2023-02-28T17:36:26;5.40;61.60
30983;DHT22;17660;52.578;13.288;2023-02-28T17:38:54;5.40;61.60
30983;DHT22;17660;52.578;13.288;2023-02-28T17:41:22;5.30;62.40
30983;DHT22;17660;52.578;13.288;2023-02-28T17:43:49;5.30;62.40
30983;DHT22;17660;52.578;13.288;2023-02-28T17:48:51;5.10;62.80
30983;DHT22;17660;52.578;13.288;2023-02-28T17:51:20;5.00;63.00
30983;DHT22;17660;52.578;13.288;2023-02-28T17:53:47;5.00;63.50
30983;DHT22;17660;52.578;13.288;2023-02-28T17:56:25;5.00;63.50
30983;DHT22;17660;52.578;13.288;2023-02-28T17:58:54;4.90;64.20
30983;DHT22;17660;52.578;13.288;2023-02-28T18:01:22;4.80;64.40
30983;DHT22;17660;52.578;13.288;2023-02-28T18:03:49;4.70;64.60
30983;DHT22;17660;52.578;13.288;2023-02-28T18:06:20;4.60;64.40
30983;DHT22;17660;52.578;13.288;2023-02-28T18:08:48;4.50;65.40
30983;DHT22;17660;52.578;13.288;2023-02-28T18:11:15;4.50;65.90
30983;DHT22;17660;52.578;13.288;2023-02-28T18:13:49;4.40;66.40
30983;DHT22;17660;52.578;13.288;2023-02-28T18:16:17;4.30;66.80
30983;DHT22;17660;52.578;13.288;2023-02-28T18:18:44;4.30;67.20
30983;DHT22;17660;52.578;13.288;2023-02-28T18:21:12;4.20;67.90
30983;DHT22;17660;52.578;13.288;2023-02-28T18:23:41;4.20;68.50
30983;DHT22;17660;52.578;13.288;2023-02-28T18:26:14;4.10;68.90
30983;DHT22;17660;52.578;13.288;2023-02-28T18:28:42;4.10;69.10
30983;DHT22;17660;52.578;13.288;2023-02-28T18:31:12;4.10;69.50
30983;DHT22;17660;52.578;13.288;2023-02-28T18:33:42;4.00;69.80